TimeAKDT,TemperatureF,Dew PointF,Humidity,Sea Level PressureIn,VisibilityMPH,Wind Direction,Wind SpeedMPH,Gust SpeedMPH,PrecipitationIn,Events,Conditions,WindDirDegrees,DateUTC
12:16 AM,28.4,23.0,80,30.28,10.0,SW,4.6,-,N/A,,Clear,230,2013-04-30 08:16:00
12:36 AM,30.2,23.0,75,30.28,10.0,SW,5.8,-,N/A,,Clear,230,2013-04-30 08:36:00
12:56 AM,30.2,23.0,75,30.28,10.0,SSW,4.6,-,N/A,,Clear,210,2013-04-30 08:56:00
1:16 AM,28.4,23.0,80,30.29,10.0,WSW,4.6,-,N/A,,Clear,240,2013-04-30 09:16:00
1:36 AM,28.4,23.0,80,30.30,10.0,WSW,4.6,-,N/A,,Clear,250,2013-04-30 09:36:00
1:56 AM,28.4,23.0,80,30.30,10.0,WSW,3.5,-,N/A,,Clear,240,2013-04-30 09:56:00
2:16 AM,28.4,24.8,86,30.30,10.0,WSW,5.8,-,N/A,,Clear,240,2013-04-30 10:16:00
2:36 AM,28.4,24.8,86,30.30,10.0,SSW,4.6,-,N/A,,Clear,210,2013-04-30 10:36:00
2:56 AM,28.4,24.8,86,30.30,10.0,SW,4.6,-,N/A,,Partly Cloudy,230,2013-04-30 10:56:00
3:16 AM,28.4,24.8,86,30.30,10.0,Calm,Calm,-,N/A,,Clear,0,2013-04-30 11:16:00
3:36 AM,28.4,23.0,80,30.30,10.0,WSW,5.8,-,N/A,,Clear,250,2013-04-30 11:36:00
3:56 AM,28.4,23.0,80,30.30,10.0,SSW,3.5,-,N/A,,Clear,210,2013-04-30 11:56:00
4:16 AM,28.4,24.8,86,30.31,10.0,WSW,3.5,-,N/A,,Clear,240,2013-04-30 12:16:00
4:36 AM,26.6,24.8,93,30.30,10.0,South,3.5,-,N/A,,Scattered Clouds,190,2013-04-30 12:36:00
4:56 AM,26.6,24.8,93,30.30,10.0,WSW,3.5,-,N/A,,Partly Cloudy,250,2013-04-30 12:56:00
5:16 AM,26.6,24.8,93,30.30,10.0,WSW,4.6,-,N/A,,Clear,250,2013-04-30 13:16:00
5:36 AM,26.6,24.8,93,30.30,10.0,WSW,4.6,-,N/A,,Clear,240,2013-04-30 13:36:00
5:56 AM,28.4,24.8,86,30.31,10.0,Calm,Calm,-,N/A,,Clear,0,2013-04-30 13:56:00
6:16 AM,28.4,24.8,86,30.31,10.0,Calm,Calm,-,N/A,,Clear,0,2013-04-30 14:16:00
6:36 AM,28.4,24.8,86,30.32,10.0,WSW,3.5,-,N/A,,Clear,240,2013-04-30 14:36:00
6:56 AM,28.4,24.8,86,30.32,10.0,Calm,Calm,-,N/A,,Partly Cloudy,0,2013-04-30 14:56:00
7:16 AM,30.2,26.6,86,30.32,10.0,West,3.5,-,N/A,,Partly Cloudy,260,2013-04-30 15:16:00
7:36 AM,32.0,26.6,80,30.32,10.0,Calm,Calm,-,N/A,,Partly Cloudy,0,2013-04-30 15:36:00
7:56 AM,33.8,24.8,70,30.32,10.0,Calm,Calm,-,N/A,,Partly Cloudy,0,2013-04-30 15:56:00
8:16 AM,33.8,24.8,70,30.33,10.0,Calm,Calm,-,N/A,,Partly Cloudy,0,2013-04-30 16:16:00
8:36 AM,33.8,21.2,60,30.32,10.0,Calm,Calm,-,N/A,,Partly Cloudy,0,2013-04-30 16:36:00
8:56 AM,35.6,24.8,65,30.32,10.0,North,3.5,-,N/A,,Partly Cloudy,10,2013-04-30 16:56:00
9:16 AM,35.6,24.8,65,30.33,10.0,Calm,Calm,-,N/A,,Partly Cloudy,0,2013-04-30 17:16:00
9:36 AM,37.4,26.6,65,30.32,10.0,ENE,4.6,-,N/A,,Partly Cloudy,70,2013-04-30 17:36:00
9:56 AM,37.4,24.8,60,30.32,10.0,East,10.4,-,N/A,,Partly Cloudy,80,2013-04-30 17:56:00
10:16 AM,37.4,24.8,60,30.33,10.0,ENE,8.1,-,N/A,,Partly Cloudy,70,2013-04-30 18:16:00
10:36 AM,39.2,24.8,56,30.33,10.0,East,9.2,-,N/A,,Partly Cloudy,80,2013-04-30 18:36:00
10:56 AM,39.2,23.0,52,30.32,10.0,ENE,9.2,-,N/A,,Scattered Clouds,70,2013-04-30 18:56:00
11:16 AM,39.2,21.2,49,30.32,10.0,ENE,12.7,-,N/A,,Scattered Clouds,70,2013-04-30 19:16:00
11:56 AM,39.2,21.2,49,30.32,10.0,East,11.5,-,N/A,,Mostly Cloudy,80,2013-04-30 19:56:00
12:16 PM,41.0,24.8,53,30.33,10.0,East,9.2,16.1,N/A,,Mostly Cloudy,90,2013-04-30 20:16:00
12:36 PM,41.0,24.8,53,30.33,10.0,East,10.4,-,N/A,,Mostly Cloudy,80,2013-04-30 20:36:00
12:56 PM,41.0,24.8,53,30.33,10.0,East,10.4,-,N/A,,Overcast,80,2013-04-30 20:56:00
1:16 PM,41.0,24.8,53,30.33,10.0,East,9.2,-,N/A,,Overcast,90,2013-04-30 21:16:00
1:36 PM,41.0,24.8,53,30.34,10.0,East,9.2,-,N/A,,Overcast,80,2013-04-30 21:36:00
1:56 PM,41.0,24.8,53,30.34,10.0,ESE,9.2,-,N/A,,Overcast,110,2013-04-30 21:56:00
2:16 PM,41.0,24.8,53,30.34,10.0,ESE,3.5,-,N/A,,Overcast,120,2013-04-30 22:16:00
2:36 PM,42.8,24.8,49,30.34,10.0,ESE,3.5,-,N/A,,Overcast,120,2013-04-30 22:36:00
2:56 PM,42.8,24.8,49,30.34,10.0,ESE,5.8,-,N/A,,Overcast,110,2013-04-30 22:56:00
3:16 PM,41.0,26.6,57,30.34,10.0,Calm,Calm,-,N/A,,Overcast,0,2013-04-30 23:16:00
3:36 PM,39.2,26.6,61,30.34,10.0,Calm,Calm,-,N/A,,Overcast,0,2013-04-30 23:36:00
3:56 PM,39.2,26.6,61,30.34,10.0,East,4.6,-,N/A,,Overcast,100,2013-04-30 23:56:00
4:16 PM,39.2,28.4,65,30.34,10.0,Calm,Calm,-,N/A,,Overcast,0,2013-05-01 00:16:00
4:36 PM,39.2,26.6,61,30.34,10.0,Calm,Calm,-,N/A,,Overcast,0,2013-05-01 00:36:00
4:56 PM,37.4,30.2,75,30.34,5.0,Calm,Calm,-,N/A,,Overcast,0,2013-05-01 00:56:00
5:16 PM,37.4,32.0,81,30.34,5.0,Calm,Calm,-,0.01,,Overcast,0,2013-05-01 01:16:00
5:36 PM,37.4,32.0,81,30.34,5.0,Calm,Calm,-,0.01,,Overcast,0,2013-05-01 01:36:00
5:56 PM,37.4,32.0,81,30.34,5.0,West,3.5,-,0.01,,Overcast,270,2013-05-01 01:56:00
6:16 PM,37.4,32.0,81,30.34,7.0,North,4.6,-,N/A,,Overcast,360,2013-05-01 02:16:00
6:36 PM,37.4,30.2,75,30.34,7.0,West,4.6,-,N/A,,Overcast,270,2013-05-01 02:36:00
6:56 PM,37.4,32.0,81,30.34,7.0,Calm,Calm,-,0.01,,Overcast,0,2013-05-01 02:56:00
7:16 PM,35.6,33.8,93,30.33,7.0,Calm,Calm,-,N/A,,Overcast,0,2013-05-01 03:16:00
7:36 PM,35.6,32.0,87,30.33,7.0,SSW,3.5,-,N/A,,Overcast,210,2013-05-01 03:36:00
7:56 PM,35.6,32.0,87,30.33,7.0,Calm,Calm,-,N/A,,Overcast,0,2013-05-01 03:56:00
8:16 PM,35.6,32.0,87,30.33,7.0,Calm,Calm,-,N/A,,Overcast,0,2013-05-01 04:16:00
8:36 PM,35.6,32.0,87,30.33,7.0,Calm,Calm,-,N/A,,Overcast,0,2013-05-01 04:36:00
8:56 PM,35.6,32.0,87,30.33,10.0,Calm,Calm,-,N/A,,Overcast,0,2013-05-01 04:56:00
9:16 PM,35.6,32.0,87,30.33,10.0,Calm,Calm,-,N/A,,Overcast,0,2013-05-01 05:16:00